sensor_id;sensor_type;location;lat;lon;timestamp;pressure;altitude;pressure_sealevel;temperature;humidity
59435;BME280;45241;49.768;8.636;2022-07-23T00:00:49;100014.94;;;26.21;66.44
59435;BME280;45241;49.768;8.636;2022-07-23T00:03:14;100015.19;;;25.87;67.78
59435;BME280;45241;49.768;8.636;2022-07-23T00:05:39;100017.22;;;25.39;72.40
59435;BME280;45241;49.768;8.636;2022-07-23T00:08:06;100028.78;;;25.12;72.56
59435;BME280;45241;49.768;8.636;2022-07-23T00:10:32;100038.72;;;24.84;72.81
59435;BME280;45241;49.768;8.636;2022-07-23T00:12:57;100055.47;;;24.82;71.26
59435;BME280;45241;49.768;8.636;2022-07-23T00:15:23;100063.28;;;24.94;71.91
59435;BME280;45241;49.768;8.636;2022-07-23T00:17:48;100074.44;;;25.27;70.37
59435;BME280;45241;49.768;8.636;2022-07-23T00:20:14;100084.69;;;25.16;71.66
59435;BME280;45241;49.768;8.636;2022-07-23T00:23:05;100083.13;;;25.34;71.37
59435;BME280;45241;49.768;8.636;2022-07-23T00:25:31;100084.88;;;25.72;72.11
59435;BME280;45241;49.768;8.636;2022-07-23T00:28:00;100074.91;;;26.52;69.52
59435;BME280;45241;49.768;8.636;2022-07-23T00:30:27;100078.09;;;24.93;78.98
59435;BME280;45241;49.768;8.636;2022-07-23T00:32:57;100071.09;;;26.15;78.25
59435;BME280;45241;49.768;8.636;2022-07-23T00:35:24;100057.88;;;26.17;78.58
59435;BME280;45241;49.768;8.636;2022-07-23T00:37:50;100035.03;;;26.35;80.34
59435;BME280;45241;49.768;8.636;2022-07-23T00:40:16;100015.88;;;26.49;77.77
59435;BME280;45241;49.768;8.636;2022-07-23T00:42:41;99997.34;;;26.03;77.54
59435;BME280;45241;49.768;8.636;2022-07-23T00:45:07;99984.19;;;25.06;81.30
59435;BME280;45241;49.768;8.636;2022-07-23T00:47:33;99975.13;;;25.48;82.17
59435;BME280;45241;49.768;8.636;2022-07-23T00:49:59;99966.22;;;24.42;86.16
59435;BME280;45241;49.768;8.636;2022-07-23T00:52:24;99984.38;;;24.33;84.80
59435;BME280;45241;49.768;8.636;2022-07-23T00:54:50;99986.16;;;24.77;82.37
59435;BME280;45241;49.768;8.636;2022-07-23T00:57:16;100007.38;;;24.61;84.94
59435;BME280;45241;49.768;8.636;2022-07-23T00:59:41;100041.41;;;24.26;81.43
59435;BME280;45241;49.768;8.636;2022-07-23T01:02:07;100055.97;;;23.72;86.14
59435;BME280;45241;49.768;8.636;2022-07-23T01:04:32;100051.28;;;24.22;82.89
59435;BME280;45241;49.768;8.636;2022-07-23T01:06:57;100075.47;;;24.10;79.85
59435;BME280;45241;49.768;8.636;2022-07-23T01:09:23;100083.94;;;25.10;77.20
59435;BME280;45241;49.768;8.636;2022-07-23T01:11:50;100106.13;;;24.85;77.58
59435;BME280;45241;49.768;8.636;2022-07-23T01:14:17;100109.03;;;24.99;77.76
59435;BME280;45241;49.768;8.636;2022-07-23T01:16:45;100103.06;;;25.15;76.33
59435;BME280;45241;49.768;8.636;2022-07-23T01:19:11;100097.06;;;25.13;74.64
59435;BME280;45241;49.768;8.636;2022-07-23T01:21:39;100107.56;;;25.59;74.60
59435;BME280;45241;49.768;8.636;2022-07-23T01:24:05;100097.53;;;24.97;77.25
59435;BME280;45241;49.768;8.636;2022-07-23T01:26:31;100092.09;;;25.15;75.06
59435;BME280;45241;49.768;8.636;2022-07-23T01:28:56;100085.66;;;25.54;74.17
59435;BME280;45241;49.768;8.636;2022-07-23T01:31:21;100085.47;;;26.07;72.49
59435;BME280;45241;49.768;8.636;2022-07-23T01:33:47;100089.44;;;25.10;76.34
59435;BME280;45241;49.768;8.636;2022-07-23T01:36:13;100091.13;;;24.43;86.31
59435;BME280;45241;49.768;8.636;2022-07-23T01:38:38;100094.44;;;25.75;77.90
59435;BME280;45241;49.768;8.636;2022-07-23T01:41:04;100077.00;;;26.03;74.99
59435;BME280;45241;49.768;8.636;2022-07-23T01:43:29;100073.34;;;26.13;75.57
59435;BME280;45241;49.768;8.636;2022-07-23T01:45:54;100058.69;;;26.18;74.84
59435;BME280;45241;49.768;8.636;2022-07-23T01:48:20;100053.00;;;26.09;75.76
59435;BME280;45241;49.768;8.636;2022-07-23T01:50:48;100058.88;;;24.64;81.47
59435;BME280;45241;49.768;8.636;2022-07-23T01:53:14;100071.78;;;24.92;82.96
59435;BME280;45241;49.768;8.636;2022-07-23T01:55:40;100070.78;;;24.49;84.33
59435;BME280;45241;49.768;8.636;2022-07-23T01:58:06;100074.50;;;25.21;80.09
59435;BME280;45241;49.768;8.636;2022-07-23T02:00:31;100083.56;;;25.46;77.33
59435;BME280;45241;49.768;8.636;2022-07-23T02:02:57;100094.31;;;25.13;79.22
59435;BME280;45241;49.768;8.636;2022-07-23T02:05:24;100090.28;;;25.30;79.87
59435;BME280;45241;49.768;8.636;2022-07-23T02:07:50;100091.75;;;24.64;81.99
59435;BME280;45241;49.768;8.636;2022-07-23T02:10:15;100098.84;;;23.97;83.87
59435;BME280;45241;49.768;8.636;2022-07-23T02:12:41;100104.00;;;25.06;79.53
59435;BME280;45241;49.768;8.636;2022-07-23T02:15:07;100111.63;;;24.85;78.24
59435;BME280;45241;49.768;8.636;2022-07-23T02:17:32;100110.94;;;25.51;76.65
59435;BME280;45241;49.768;8.636;2022-07-23T02:19:57;100107.59;;;25.54;76.69
59435;BME280;45241;49.768;8.636;2022-07-23T02:22:23;100110.94;;;25.51;77.67
59435;BME280;45241;49.768;8.636;2022-07-23T02:24:48;100101.63;;;24.99;77.89
59435;BME280;45241;49.768;8.636;2022-07-23T02:27:13;100091.56;;;25.42;77.37
59435;BME280;45241;49.768;8.636;2022-07-23T02:29:39;100089.63;;;25.86;75.55
59435;BME280;45241;49.768;8.636;2022-07-23T02:32:04;100092.41;;;25.38;76.58
59435;BME280;45241;49.768;8.636;2022-07-23T02:34:30;100081.53;;;25.94;75.00
59435;BME280;45241;49.768;8.636;2022-07-23T02:36:55;100088.44;;;25.92;75.00
59435;BME280;45241;49.768;8.636;2022-07-23T02:39:20;100078.13;;;26.21;73.58
59435;BME280;45241;49.768;8.636;2022-07-23T02:41:46;100063.34;;;25.79;74.78
59435;BME280;45241;49.768;8.636;2022-07-23T02:44:11;100089.59;;;24.27;85.48
59435;BME280;45241;49.768;8.636;2022-07-23T02:46:36;100077.06;;;25.37;80.87
59435;BME280;45241;49.768;8.636;2022-07-23T02:49:01;100069.28;;;24.96;86.39
59435;BME280;45241;49.768;8.636;2022-07-23T02:51:27;100061.41;;;25.37;84.59
59435;BME280;45241;49.768;8.636;2022-07-23T02:53:52;100059.28;;;25.77;82.91
59435;BME280;45241;49.768;8.636;2022-07-23T02:56:18;100063.94;;;24.18;87.29
59435;BME280;45241;49.768;8.636;2022-07-23T02:58:43;100079.00;;;22.55;100.00
59435;BME280;45241;49.768;8.636;2022-07-23T03:01:08;100091.84;;;22.50;100.00
59435;BME280;45241;49.768;8.636;2022-07-23T03:03:34;100096.75;;;23.73;93.13
59435;BME280;45241;49.768;8.636;2022-07-23T03:05:59;100092.72;;;23.56;93.49
59435;BME280;45241;49.768;8.636;2022-07-23T03:08:24;100096.53;;;23.65;91.69
59435;BME280;45241;49.768;8.636;2022-07-23T03:10:50;100094.00;;;24.28;89.05
59435;BME280;45241;49.768;8.636;2022-07-23T03:13:16;100102.09;;;24.77;86.57
59435;BME280;45241;49.768;8.636;2022-07-23T03:15:41;100116.44;;;24.98;85.04
59435;BME280;45241;49.768;8.636;2022-07-23T03:18:06;100110.22;;;24.87;87.07
59435;BME280;45241;49.768;8.636;2022-07-23T03:20:31;100097.91;;;24.12;92.56
59435;BME280;45241;49.768;8.636;2022-07-23T03:22:57;100110.84;;;24.79;87.40
59435;BME280;45241;49.768;8.636;2022-07-23T03:25:22;100128.28;;;24.20;90.25
59435;BME280;45241;49.768;8.636;2022-07-23T03:27:48;100133.63;;;23.96;91.10
59435;BME280;45241;49.768;8.636;2022-07-23T03:30:13;100130.63;;;24.37;87.22
59435;BME280;45241;49.768;8.636;2022-07-23T03:32:38;100129.16;;;24.50;89.50
59435;BME280;45241;49.768;8.636;2022-07-23T03:35:04;100143.47;;;23.92;91.76
59435;BME280;45241;49.768;8.636;2022-07-23T03:37:30;100144.25;;;23.08;98.54
59435;BME280;45241;49.768;8.636;2022-07-23T03:39:55;100151.38;;;23.19;95.42
59435;BME280;45241;49.768;8.636;2022-07-23T03:42:20;100145.81;;;23.55;95.52
59435;BME280;45241;49.768;8.636;2022-07-23T03:44:46;100136.25;;;24.56;89.38
59435;BME280;45241;49.768;8.636;2022-07-23T03:47:11;100129.84;;;24.65;89.30
59435;BME280;45241;49.768;8.636;2022-07-23T03:49:36;100138.72;;;24.52;88.88
59435;BME280;45241;49.768;8.636;2022-07-23T03:52:02;100142.56;;;24.12;92.13
59435;BME280;45241;49.768;8.636;2022-07-23T03:54:27;100150.56;;;23.03;97.79
59435;BME280;45241;49.768;8.636;2022-07-23T03:56:52;100148.63;;;23.09;98.11
59435;BME280;45241;49.768;8.636;2022-07-23T03:59:18;100146.47;;;23.96;92.27
59435;BME280;45241;49.768;8.636;2022-07-23T04:01:43;100135.72;;;24.54;90.16
59435;BME280;45241;49.768;8.636;2022-07-23T04:04:08;100136.47;;;23.66;97.29
59435;BME280;45241;49.768;8.636;2022-07-23T04:06:34;100134.16;;;24.77;90.80
59435;BME280;45241;49.768;8.636;2022-07-23T04:09:00;100130.50;;;24.13;92.45
59435;BME280;45241;49.768;8.636;2022-07-23T04:11:25;100137.81;;;24.62;90.56
59435;BME280;45241;49.768;8.636;2022-07-23T04:13:51;100155.44;;;24.56;88.76
59435;BME280;45241;49.768;8.636;2022-07-23T04:16:16;100154.66;;;22.70;97.92
59435;BME280;45241;49.768;8.636;2022-07-23T04:18:41;100151.63;;;24.08;91.59
59435;BME280;45241;49.768;8.636;2022-07-23T04:21:07;100158.47;;;23.30;93.70
59435;BME280;45241;49.768;8.636;2022-07-23T04:23:32;100156.00;;;23.34;96.44
59435;BME280;45241;49.768;8.636;2022-07-23T04:25:57;100155.47;;;24.01;92.92
59435;BME280;45241;49.768;8.636;2022-07-23T04:28:23;100163.50;;;23.83;93.93
59435;BME280;45241;49.768;8.636;2022-07-23T04:30:48;100165.56;;;23.41;96.20
59435;BME280;45241;49.768;8.636;2022-07-23T04:33:13;100161.50;;;24.03;90.14
59435;BME280;45241;49.768;8.636;2022-07-23T04:35:39;100168.81;;;24.68;87.14
59435;BME280;45241;49.768;8.636;2022-07-23T04:38:04;100192.22;;;23.90;88.92
59435;BME280;45241;49.768;8.636;2022-07-23T04:40:29;100200.81;;;23.48;91.02
59435;BME280;45241;49.768;8.636;2022-07-23T04:42:55;100228.03;;;24.53;84.92
59435;BME280;45241;49.768;8.636;2022-07-23T04:45:21;100237.66;;;23.96;88.51
59435;BME280;45241;49.768;8.636;2022-07-23T04:47:46;100234.69;;;23.62;88.11
59435;BME280;45241;49.768;8.636;2022-07-23T04:50:12;100233.94;;;23.41;91.05
59435;BME280;45241;49.768;8.636;2022-07-23T04:52:37;100233.91;;;24.37;86.30
59435;BME280;45241;49.768;8.636;2022-07-23T04:55:03;100230.16;;;24.67;83.34
59435;BME280;45241;49.768;8.636;2022-07-23T04:57:28;100236.63;;;23.67;88.98
59435;BME280;45241;49.768;8.636;2022-07-23T04:59:54;100241.78;;;23.94;90.06
59435;BME280;45241;49.768;8.636;2022-07-23T05:02:19;100237.47;;;23.57;95.37
59435;BME280;45241;49.768;8.636;2022-07-23T05:04:44;100232.31;;;24.30;90.00
59435;BME280;45241;49.768;8.636;2022-07-23T05:07:10;100213.66;;;24.27;88.27
59435;BME280;45241;49.768;8.636;2022-07-23T05:09:35;100221.94;;;24.22;90.29
59435;BME280;45241;49.768;8.636;2022-07-23T05:12:00;100222.50;;;24.63;90.21
59435;BME280;45241;49.768;8.636;2022-07-23T05:14:26;100215.53;;;24.37;89.39
59435;BME280;45241;49.768;8.636;2022-07-23T05:16:52;100228.22;;;24.28;90.55
59435;BME280;45241;49.768;8.636;2022-07-23T05:19:17;100228.47;;;24.26;90.43
59435;BME280;45241;49.768;8.636;2022-07-23T05:21:42;100224.47;;;24.53;89.17
59435;BME280;45241;49.768;8.636;2022-07-23T05:24:08;100218.72;;;24.05;90.89
59435;BME280;45241;49.768;8.636;2022-07-23T05:26:33;100236.25;;;24.58;90.19
59435;BME280;45241;49.768;8.636;2022-07-23T05:28:59;100241.53;;;24.89;86.97
59435;BME280;45241;49.768;8.636;2022-07-23T05:31:24;100243.38;;;24.99;85.95
59435;BME280;45241;49.768;8.636;2022-07-23T05:33:49;100249.91;;;24.63;88.69
59435;BME280;45241;49.768;8.636;2022-07-23T05:36:15;100256.88;;;23.66;94.10
59435;BME280;45241;49.768;8.636;2022-07-23T05:38:40;100275.97;;;23.91;92.72
59435;BME280;45241;49.768;8.636;2022-07-23T05:41:05;100286.72;;;23.57;96.01
59435;BME280;45241;49.768;8.636;2022-07-23T05:43:31;100285.31;;;23.75;93.94
59435;BME280;45241;49.768;8.636;2022-07-23T05:45:56;100288.31;;;23.84;93.97
59435;BME280;45241;49.768;8.636;2022-07-23T05:48:21;100287.88;;;24.36;91.46
59435;BME280;45241;49.768;8.636;2022-07-23T05:50:47;100287.88;;;24.36;90.88
59435;BME280;45241;49.768;8.636;2022-07-23T05:53:13;100274.06;;;23.97;91.41
59435;BME280;45241;49.768;8.636;2022-07-23T05:55:38;100272.63;;;24.15;91.67
59435;BME280;45241;49.768;8.636;2022-07-23T05:58:03;100267.03;;;23.55;95.07
59435;BME280;45241;49.768;8.636;2022-07-23T06:00:29;100263.47;;;23.55;95.30
59435;BME280;45241;49.768;8.636;2022-07-23T06:02:54;100257.47;;;23.42;93.61
59435;BME280;45241;49.768;8.636;2022-07-23T06:05:20;100253.63;;;23.33;94.42
59435;BME280;45241;49.768;8.636;2022-07-23T06:07:45;100253.09;;;23.21;96.03
59435;BME280;45241;49.768;8.636;2022-07-23T06:10:10;100263.47;;;23.04;94.22
59435;BME280;45241;49.768;8.636;2022-07-23T06:12:36;100247.06;;;23.44;92.96
59435;BME280;45241;49.768;8.636;2022-07-23T06:15:03;100254.75;;;23.17;95.35
59435;BME280;45241;49.768;8.636;2022-07-23T06:17:28;100246.81;;;23.26;93.78
59435;BME280;45241;49.768;8.636;2022-07-23T06:19:54;100247.63;;;23.01;95.37
59435;BME280;45241;49.768;8.636;2022-07-23T06:22:19;100240.50;;;23.51;92.32
59435;BME280;45241;49.768;8.636;2022-07-23T06:24:45;100244.03;;;23.10;92.29
59435;BME280;45241;49.768;8.636;2022-07-23T06:27:10;100240.25;;;23.37;92.21
59435;BME280;45241;49.768;8.636;2022-07-23T06:29:35;100236.69;;;23.21;91.19
59435;BME280;45241;49.768;8.636;2022-07-23T06:32:01;100233.91;;;23.57;85.20
59435;BME280;45241;49.768;8.636;2022-07-23T06:34:26;100236.56;;;23.97;86.92
59435;BME280;45241;49.768;8.636;2022-07-23T06:36:52;100245.66;;;23.62;90.18
59435;BME280;45241;49.768;8.636;2022-07-23T06:39:17;100250.72;;;24.20;86.77
59435;BME280;45241;49.768;8.636;2022-07-23T06:41:42;100253.31;;;24.40;85.66
59435;BME280;45241;49.768;8.636;2022-07-23T06:44:08;100261.41;;;24.16;84.81
59435;BME280;45241;49.768;8.636;2022-07-23T06:46:33;100264.22;;;24.55;83.26
59435;BME280;45241;49.768;8.636;2022-07-23T06:48:59;100272.03;;;24.82;80.01
59435;BME280;45241;49.768;8.636;2022-07-23T06:51:24;100279.41;;;24.87;78.36
59435;BME280;45241;49.768;8.636;2022-07-23T06:53:50;100282.19;;;24.82;81.33
59435;BME280;45241;49.768;8.636;2022-07-23T06:56:15;100284.94;;;24.82;79.34
59435;BME280;45241;49.768;8.636;2022-07-23T06:58:41;100272.34;;;24.76;79.91
59435;BME280;45241;49.768;8.636;2022-07-23T07:01:06;100277.78;;;24.26;81.43
59435;BME280;45241;49.768;8.636;2022-07-23T07:03:31;100281.41;;;24.66;79.92
59435;BME280;45241;49.768;8.636;2022-07-23T07:05:57;100291.47;;;24.31;82.85
59435;BME280;45241;49.768;8.636;2022-07-23T07:08:23;100303.75;;;24.39;83.02
59435;BME280;45241;49.768;8.636;2022-07-23T07:10:48;100304.03;;;24.43;81.80
59435;BME280;45241;49.768;8.636;2022-07-23T07:13:14;100309.25;;;24.93;79.15
59435;BME280;45241;49.768;8.636;2022-07-23T07:15:39;100321.13;;;25.18;80.10
59435;BME280;45241;49.768;8.636;2022-07-23T07:18:04;100321.16;;;25.52;76.66
59435;BME280;45241;49.768;8.636;2022-07-23T07:20:30;100319.47;;;25.85;75.09
59435;BME280;45241;49.768;8.636;2022-07-23T07:22:55;100322.41;;;25.31;75.67
59435;BME280;45241;49.768;8.636;2022-07-23T07:25:20;100319.06;;;25.97;74.77
59435;BME280;45241;49.768;8.636;2022-07-23T07:27:46;100312.34;;;26.08;73.79
59435;BME280;45241;49.768;8.636;2022-07-23T07:30:11;100323.44;;;25.74;75.50
59435;BME280;45241;49.768;8.636;2022-07-23T07:32:37;100320.22;;;24.34;81.71
59435;BME280;45241;49.768;8.636;2022-07-23T07:35:04;100325.91;;;25.02;77.58
59435;BME280;45241;49.768;8.636;2022-07-23T07:37:29;100327.16;;;24.81;77.48
59435;BME280;45241;49.768;8.636;2022-07-23T07:39:54;100324.72;;;24.64;77.81
59435;BME280;45241;49.768;8.636;2022-07-23T07:42:20;100331.28;;;25.17;75.47
59435;BME280;45241;49.768;8.636;2022-07-23T07:44:45;100334.19;;;25.94;72.63
59435;BME280;45241;49.768;8.636;2022-07-23T07:47:10;100329.66;;;25.85;74.90
59435;BME280;45241;49.768;8.636;2022-07-23T07:49:36;100329.06;;;25.88;73.73
59435;BME280;45241;49.768;8.636;2022-07-23T07:52:02;100330.84;;;25.39;73.45
59435;BME280;45241;49.768;8.636;2022-07-23T07:54:28;100346.38;;;25.54;73.47
59435;BME280;45241;49.768;8.636;2022-07-23T07:56:53;100341.09;;;25.92;73.42
59435;BME280;45241;49.768;8.636;2022-07-23T07:59:18;100340.22;;;25.67;74.68
59435;BME280;45241;49.768;8.636;2022-07-23T08:01:44;100340.34;;;25.86;72.31
59435;BME280;45241;49.768;8.636;2022-07-23T08:04:09;100336.88;;;25.41;74.95
59435;BME280;45241;49.768;8.636;2022-07-23T08:06:34;100339.50;;;25.57;73.76
59435;BME280;45241;49.768;8.636;2022-07-23T08:09:00;100345.25;;;24.77;76.62
59435;BME280;45241;49.768;8.636;2022-07-23T08:11:25;100338.53;;;25.42;77.10
59435;BME280;45241;49.768;8.636;2022-07-23T08:13:50;100346.16;;;25.79;76.66
59435;BME280;45241;49.768;8.636;2022-07-23T08:16:16;100347.63;;;25.96;75.88
59435;BME280;45241;49.768;8.636;2022-07-23T08:18:41;100354.81;;;26.21;72.08
59435;BME280;45241;49.768;8.636;2022-07-23T08:21:07;100359.31;;;25.83;71.33
59435;BME280;45241;49.768;8.636;2022-07-23T08:23:32;100361.72;;;26.18;70.83
59435;BME280;45241;49.768;8.636;2022-07-23T08:25:58;100353.47;;;26.18;71.25
59435;BME280;45241;49.768;8.636;2022-07-23T08:28:25;100369.78;;;26.81;70.28
59435;BME280;45241;49.768;8.636;2022-07-23T08:30:50;100368.16;;;26.56;71.17
59435;BME280;45241;49.768;8.636;2022-07-23T08:33:17;100376.50;;;26.70;68.19
59435;BME280;45241;49.768;8.636;2022-07-23T08:35:46;100369.84;;;25.31;71.92
59435;BME280;45241;49.768;8.636;2022-07-23T08:38:13;100369.56;;;26.01;68.82
59435;BME280;45241;49.768;8.636;2022-07-23T08:40:42;100366.53;;;26.02;69.12
59435;BME280;45241;49.768;8.636;2022-07-23T08:43:11;100372.31;;;26.01;69.05
59435;BME280;45241;49.768;8.636;2022-07-23T08:45:45;100375.75;;;25.54;69.34
59435;BME280;45241;49.768;8.636;2022-07-23T08:48:13;100364.19;;;25.91;69.32
59435;BME280;45241;49.768;8.636;2022-07-23T08:50:42;100377.97;;;27.05;65.97
59435;BME280;45241;49.768;8.636;2022-07-23T08:53:08;100379.31;;;26.89;67.62
59435;BME280;45241;49.768;8.636;2022-07-23T08:55:34;100375.09;;;27.15;66.03
59435;BME280;45241;49.768;8.636;2022-07-23T08:58:00;100371.03;;;27.78;66.03
59435;BME280;45241;49.768;8.636;2022-07-23T09:00:25;100369.78;;;27.57;65.57
59435;BME280;45241;49.768;8.636;2022-07-23T09:02:51;100362.84;;;27.59;64.40
59435;BME280;45241;49.768;8.636;2022-07-23T09:05:16;100361.03;;;28.14;64.17
59435;BME280;45241;49.768;8.636;2022-07-23T09:52:01;100356.91;;;29.30;59.34
59435;BME280;45241;49.768;8.636;2022-07-23T09:57:03;100348.88;;;30.18;57.76
59435;BME280;45241;49.768;8.636;2022-07-23T09:59:32;100354.78;;;30.83;55.30
59435;BME280;45241;49.768;8.636;2022-07-23T10:01:59;100355.88;;;29.63;58.18
59435;BME280;45241;49.768;8.636;2022-07-23T10:04:26;100353.03;;;30.07;57.43
59435;BME280;45241;49.768;8.636;2022-07-23T10:06:55;100355.25;;;29.43;57.60
59435;BME280;45241;49.768;8.636;2022-07-23T10:09:29;100354.69;;;29.55;56.36
59435;BME280;45241;49.768;8.636;2022-07-23T10:11:57;100353.69;;;28.37;59.34
59435;BME280;45241;49.768;8.636;2022-07-23T10:14:41;100351.94;;;28.83;57.80
59435;BME280;45241;49.768;8.636;2022-07-23T10:17:07;100353.94;;;29.94;57.32
59435;BME280;45241;49.768;8.636;2022-07-23T10:19:33;100358.00;;;29.07;56.46
59435;BME280;45241;49.768;8.636;2022-07-23T10:22:01;100354.50;;;28.79;58.56
59435;BME280;45241;49.768;8.636;2022-07-23T10:24:37;100351.38;;;29.30;57.92
59435;BME280;45241;49.768;8.636;2022-07-23T10:27:43;100352.88;;;28.78;57.00
59435;BME280;45241;49.768;8.636;2022-07-23T10:31:28;100356.31;;;28.97;58.02
59435;BME280;45241;49.768;8.636;2022-07-23T10:33:20;100360.09;;;30.22;53.97
59435;BME280;45241;49.768;8.636;2022-07-23T10:36:20;100352.16;;;29.09;56.37
59435;BME280;45241;49.768;8.636;2022-07-23T10:38:58;100354.75;;;30.74;53.91
59435;BME280;45241;49.768;8.636;2022-07-23T10:41:34;100347.59;;;30.73;54.19
59435;BME280;45241;49.768;8.636;2022-07-23T10:44:14;100349.13;;;29.77;54.95
59435;BME280;45241;49.768;8.636;2022-07-23T10:47:06;100355.31;;;29.52;55.83
59435;BME280;45241;49.768;8.636;2022-07-23T10:49:50;100354.75;;;29.64;54.71
59435;BME280;45241;49.768;8.636;2022-07-23T10:52:26;100346.13;;;29.96;54.38
59435;BME280;45241;49.768;8.636;2022-07-23T10:54:57;100355.41;;;30.71;52.48
59435;BME280;45241;49.768;8.636;2022-07-23T10:57:47;100350.34;;;29.94;51.81
59435;BME280;45241;49.768;8.636;2022-07-23T11:00:15;100357.06;;;29.48;52.58
59435;BME280;45241;49.768;8.636;2022-07-23T11:02:43;100347.25;;;30.26;51.93
59435;BME280;45241;49.768;8.636;2022-07-23T11:05:21;100338.38;;;29.09;54.17
59435;BME280;45241;49.768;8.636;2022-07-23T11:10:50;100344.69;;;31.47;50.56
59435;BME280;45241;49.768;8.636;2022-07-23T11:31:56;100331.56;;;31.91;49.85
59435;BME280;45241;49.768;8.636;2022-07-23T11:34:38;100327.31;;;32.61;50.03
59435;BME280;45241;49.768;8.636;2022-07-23T11:37:07;100331.97;;;31.12;50.28
59435;BME280;45241;49.768;8.636;2022-07-23T11:39:34;100328.41;;;30.94;51.36
59435;BME280;45241;49.768;8.636;2022-07-23T11:42:01;100335.88;;;31.02;50.81
59435;BME280;45241;49.768;8.636;2022-07-23T11:44:32;100331.84;;;31.25;49.18
59435;BME280;45241;49.768;8.636;2022-07-23T11:47:00;100339.75;;;31.79;49.24
59435;BME280;45241;49.768;8.636;2022-07-23T11:49:26;100325.78;;;31.58;49.10
59435;BME280;45241;49.768;8.636;2022-07-23T11:52:12;100322.34;;;32.75;47.66
59435;BME280;45241;49.768;8.636;2022-07-23T11:54:56;100317.81;;;30.70;48.99
59435;BME280;45241;49.768;8.636;2022-07-23T11:57:28;100316.50;;;30.85;48.50
59435;BME280;45241;49.768;8.636;2022-07-23T11:59:56;100310.47;;;31.43;48.77
59435;BME280;45241;49.768;8.636;2022-07-23T12:02:23;100310.53;;;31.90;48.35
59435;BME280;45241;49.768;8.636;2022-07-23T12:04:50;100308.25;;;32.30;47.99
59435;BME280;45241;49.768;8.636;2022-07-23T12:07:43;100305.88;;;31.56;47.65
59435;BME280;45241;49.768;8.636;2022-07-23T12:10:18;100313.97;;;31.87;47.72
59435;BME280;45241;49.768;8.636;2022-07-23T12:12:47;100309.34;;;31.10;47.83
59435;BME280;45241;49.768;8.636;2022-07-23T12:15:15;100305.06;;;32.11;48.11
59435;BME280;45241;49.768;8.636;2022-07-23T12:17:43;100311.97;;;31.32;48.21
59435;BME280;45241;49.768;8.636;2022-07-23T12:20:12;100301.22;;;31.22;49.27
59435;BME280;45241;49.768;8.636;2022-07-23T12:22:43;100303.34;;;31.25;49.12
59435;BME280;45241;49.768;8.636;2022-07-23T12:25:20;100295.84;;;30.99;49.33
59435;BME280;45241;49.768;8.636;2022-07-23T12:27:46;100305.56;;;30.05;50.12
59435;BME280;45241;49.768;8.636;2022-07-23T12:30:26;100298.81;;;30.29;48.87
59435;BME280;45241;49.768;8.636;2022-07-23T12:32:54;100301.53;;;31.38;46.85
59435;BME280;45241;49.768;8.636;2022-07-23T12:35:21;100290.13;;;30.70;49.37
59435;BME280;45241;49.768;8.636;2022-07-23T12:37:48;100295.66;;;30.70;48.03
59435;BME280;45241;49.768;8.636;2022-07-23T12:40:32;100300.34;;;31.73;47.14
59435;BME280;45241;49.768;8.636;2022-07-23T12:43:03;100299.13;;;32.30;46.25
59435;BME280;45241;49.768;8.636;2022-07-23T12:45:43;100312.94;;;31.45;46.94
59435;BME280;45241;49.768;8.636;2022-07-23T12:48:16;100308.22;;;32.39;46.82
59435;BME280;45241;49.768;8.636;2022-07-23T12:53:18;100307.59;;;30.39;48.08
59435;BME280;45241;49.768;8.636;2022-07-23T12:55:46;100309.66;;;30.91;47.10
59435;BME280;45241;49.768;8.636;2022-07-23T12:58:18;100309.97;;;30.72;47.12
59435;BME280;45241;49.768;8.636;2022-07-23T13:03:27;100302.56;;;32.56;46.74
59435;BME280;45241;49.768;8.636;2022-07-23T13:05:52;100302.38;;;33.57;45.19
59435;BME280;45241;49.768;8.636;2022-07-23T13:08:18;100307.66;;;31.78;46.53
59435;BME280;45241;49.768;8.636;2022-07-23T13:10:43;100306.16;;;33.19;44.23
59435;BME280;45241;49.768;8.636;2022-07-23T13:13:12;100307.88;;;32.91;44.40
59435;BME280;45241;49.768;8.636;2022-07-23T13:15:38;100298.22;;;33.30;45.33
59435;BME280;45241;49.768;8.636;2022-07-23T13:18:03;100313.19;;;31.78;45.92
59435;BME280;45241;49.768;8.636;2022-07-23T13:20:29;100303.63;;;32.43;45.75
59435;BME280;45241;49.768;8.636;2022-07-23T13:22:56;100301.88;;;32.59;45.71
59435;BME280;45241;49.768;8.636;2022-07-23T13:25:22;100304.31;;;33.44;43.33
59435;BME280;45241;49.768;8.636;2022-07-23T13:27:47;100298.81;;;33.69;43.53
59435;BME280;45241;49.768;8.636;2022-07-23T13:30:12;100301.38;;;32.87;43.84
59435;BME280;45241;49.768;8.636;2022-07-23T13:32:38;100299.81;;;32.77;45.41
59435;BME280;45241;49.768;8.636;2022-07-23T13:35:04;100284.75;;;34.10;43.42
59435;BME280;45241;49.768;8.636;2022-07-23T13:37:29;100288.91;;;35.05;42.50
59435;BME280;45241;49.768;8.636;2022-07-23T13:39:54;100295.78;;;33.61;41.83
59435;BME280;45241;49.768;8.636;2022-07-23T13:42:20;100292.66;;;33.63;41.22
59435;BME280;45241;49.768;8.636;2022-07-23T13:44:45;100294.19;;;32.65;43.13
59435;BME280;45241;49.768;8.636;2022-07-23T13:47:10;100287.78;;;34.05;40.96
59435;BME280;45241;49.768;8.636;2022-07-23T13:49:36;100281.94;;;35.11;39.82
59435;BME280;45241;49.768;8.636;2022-07-23T13:52:03;100285.22;;;35.45;39.56
59435;BME280;45241;49.768;8.636;2022-07-23T13:54:28;100283.81;;;33.49;41.83
59435;BME280;45241;49.768;8.636;2022-07-23T13:56:54;100280.56;;;32.72;43.02
59435;BME280;45241;49.768;8.636;2022-07-23T13:59:19;100275.63;;;32.77;43.54
59435;BME280;45241;49.768;8.636;2022-07-23T14:01:44;100278.31;;;32.44;44.85
59435;BME280;45241;49.768;8.636;2022-07-23T14:04:10;100285.84;;;32.65;44.53